Terminal Aerodrome Forecast
Issued by NWS

Home | Current Version | Previous Version | Text Only | Print | Product List | Glossary On
Versions: 1 2 3 4 5 6 7 8 9 10 11 12 13 14 15 16 17 18
000
FTUS43 KDLH 272300 RRA
TAFBRD
TAF
KBRD 272351Z 2800/2824 17003KT P6SM SKC
     FM280200 17005KT P6SM SCT040 OVC100
     FM280500 15006KT 3SM -SN SCT025 OVC040
     FM280900 14008KT 3SM -SN SCT015 OVC025
     FM281200 11004KT 1 1/2SM -SN OVC015
     FM281700 12004KT 3SM -SN OVC015
     FM282000 11005KT P6SM VCSH OVC015=

USA.gov is the U.S. government's official web portal to all federal, state and local government web resources and services.